Time;durP1;ratioP1;P1;durP2;ratioP2;P2;SDS_P1;SDS_P2;PMS_P1;PMS_P2;Temp;Humidity;BMP_temperature;BMP_pressure;BME280_temperature;BME280_humidity;BME280_pressure;Samples;Min_cycle;Max_cycle;Signal;HPM_P1;HPM_P2
2022/07/15 00:00:32;;;;;;;6.97;4.10;;;16.80;99.90;;;;;;5039706;28;20025;-51
2022/07/15 00:02:59;;;;;;;11.80;4.90;;;16.70;99.90;;;;;;5057260;28;20036;-51
2022/07/15 00:05:25;;;;;;;12.23;5.35;;;16.80;99.90;;;;;;5057585;28;20017;-51
2022/07/15 00:07:52;;;;;;;18.05;7.38;;;16.80;99.90;;;;;;5039507;28;20032;-51
2022/07/15 00:10:18;;;;;;;21.23;7.05;;;16.70;99.90;;;;;;5056441;28;20125;-51
2022/07/15 00:12:46;;;;;;;11.80;5.65;;;16.60;99.90;;;;;;5057321;28;20436;-50
2022/07/15 00:15:12;;;;;;;12.63;5.47;;;16.60;99.90;;;;;;5057337;28;20391;-51
2022/07/15 00:17:40;;;;;;;6.95;4.53;;;16.50;99.90;;;;;;5039298;28;20111;-50
2022/07/15 00:20:06;;;;;;;7.25;4.18;;;16.50;99.90;;;;;;5057265;28;20313;-51
2022/07/15 00:22:32;;;;;;;8.13;5.00;;;16.50;99.90;;;;;;5063260;28;20129;-51
2022/07/15 00:24:58;;;;;;;7.65;4.13;;;16.40;99.90;;;;;;5057272;28;20061;-51
2022/07/15 00:27:24;;;;;;;9.90;4.53;;;16.50;99.90;;;;;;5056974;28;20039;-51
2022/07/15 00:29:50;;;;;;;10.10;4.43;;;16.50;99.90;;;;;;5057066;28;20471;-50
2022/07/15 00:32:17;;;;;;;5.57;4.22;;;16.40;99.90;;;;;;5055776;28;20032;-51
2022/07/15 00:34:43;;;;;;;7.47;4.63;;;16.40;99.90;;;;;;5055949;28;20441;-51
2022/07/15 00:37:09;;;;;;;7.43;4.70;;;16.40;99.90;;;;;;5055537;28;20032;-51
2022/07/15 00:39:36;;;;;;;7.43;4.43;;;16.40;99.90;;;;;;5056785;28;20085;-50
2022/07/15 00:42:03;;;;;;;5.70;3.78;;;16.40;99.90;;;;;;5056820;28;20139;-51
2022/07/15 00:44:30;;;;;;;7.85;4.03;;;16.40;99.90;;;;;;5055723;28;20036;-50
2022/07/15 00:46:56;;;;;;;7.93;3.92;;;16.40;99.90;;;;;;5072322;28;20040;-51
2022/07/15 00:49:22;;;;;;;6.53;4.10;;;16.40;99.90;;;;;;5056815;28;20051;-51
2022/07/15 00:51:54;;;;;;;6.72;4.43;;;16.30;99.90;;;;;;5056558;28;20025;-51
2022/07/15 00:54:25;;;;;;;9.48;3.78;;;16.30;99.90;;;;;;5056563;28;20396;-50
2022/07/15 00:56:55;;;;;;;7.20;3.70;;;16.20;99.90;;;;;;5056549;28;20029;-51
2022/07/15 00:59:23;;;;;;;7.65;3.65;;;16.20;99.90;;;;;;5055371;28;20027;-51
2022/07/15 01:01:52;;;;;;;6.50;3.75;;;16.10;99.90;;;;;;5055185;28;20047;-51
2022/07/15 01:04:20;;;;;;;5.38;3.25;;;16.10;99.90;;;;;;5056298;28;20025;-51
2022/07/15 01:06:47;;;;;;;4.75;3.35;;;16.00;99.90;;;;;;5054611;28;20029;-51
2022/07/15 01:09:12;;;;;;;4.32;3.17;;;16.00;99.90;;;;;;5056569;28;20025;-50
2022/07/15 01:11:39;;;;;;;6.10;3.13;;;16.00;99.90;;;;;;5056398;28;20518;-51
2022/07/15 01:14:06;;;;;;;5.07;3.42;;;15.90;99.90;;;;;;5055008;28;20067;-51
2022/07/15 01:16:33;;;;;;;5.40;3.63;;;15.90;99.90;;;;;;5054928;28;20435;-51
2022/07/15 01:18:59;;;;;;;5.97;3.25;;;15.90;99.90;;;;;;5038284;28;20418;-51
2022/07/15 01:21:33;;;;;;;8.30;3.63;;;15.90;99.90;;;;;;5054747;28;20041;-51
2022/07/15 01:24:00;;;;;;;4.35;3.13;;;15.90;99.90;;;;;;5038154;28;20025;-51
2022/07/15 01:26:32;;;;;;;9.63;3.05;;;15.90;99.90;;;;;;5055981;28;20025;-51
2022/07/15 01:28:59;;;;;;;6.50;3.58;;;15.90;99.90;;;;;;5038181;28;20029;-51
2022/07/15 01:31:25;;;;;;;6.55;3.40;;;15.80;99.90;;;;;;5038045;28;20032;-50
2022/07/15 01:33:53;;;;;;;4.40;3.20;;;15.80;99.90;;;;;;5038296;28;20033;-51
2022/07/15 01:36:20;;;;;;;7.05;3.10;;;15.80;99.90;;;;;;5037888;28;20064;-50
2022/07/15 01:38:53;;;;;;;10.93;3.90;;;15.80;99.90;;;;;;5037522;28;20029;-50
2022/07/15 01:41:22;;;;;;;5.20;3.20;;;15.70;99.90;;;;;;5038029;28;20378;-50
2022/07/15 01:43:48;;;;;;;4.85;3.30;;;15.60;99.90;;;;;;5054325;28;20079;-50
2022/07/15 01:46:14;;;;;;;5.80;3.20;;;15.70;99.90;;;;;;5037819;28;20064;-50
2022/07/15 01:52:02;;;;;;;4.60;2.92;;;15.60;99.90;;;;;;4974375;28;20441;-51
2022/07/15 01:54:30;;;;;;;4.18;2.78;;;15.50;99.90;;;;;;5009052;28;20075;-51
2022/07/15 01:56:59;;;;;;;10.35;4.00;;;15.50;99.90;;;;;;5037530;28;20544;-50
2022/07/15 01:59:27;;;;;;;8.82;4.15;;;15.50;99.90;;;;;;5054171;28;20033;-51
2022/07/15 02:01:57;;;;;;;4.20;3.33;;;15.40;99.90;;;;;;5037426;28;20036;-51
2022/07/15 02:04:23;;;;;;;6.78;3.33;;;15.30;99.90;;;;;;5037524;28;20029;-50
2022/07/15 02:06:49;;;;;;;5.28;3.17;;;15.30;99.90;;;;;;5053781;28;20033;-51
2022/07/15 02:09:17;;;;;;;6.55;3.45;;;15.30;99.90;;;;;;5037654;28;20029;-51
2022/07/15 02:11:46;;;;;;;3.65;2.72;;;15.20;99.90;;;;;;5037487;28;20028;-51
2022/07/15 02:14:12;;;;;;;5.35;3.42;;;15.10;99.90;;;;;;5037091;28;20025;-51
2022/07/15 02:16:39;;;;;;;7.68;3.35;;;15.20;99.90;;;;;;5037425;28;20033;-51
2022/07/15 02:19:09;;;;;;;5.00;3.40;;;15.20;99.90;;;;;;5036150;28;20087;-51
2022/07/15 02:21:36;;;;;;;6.57;3.28;;;15.10;99.90;;;;;;5036879;28;20041;-51
2022/07/15 02:24:03;;;;;;;6.78;3.10;;;15.10;99.90;;;;;;5037047;28;20029;-51
2022/07/15 02:26:29;;;;;;;6.28;2.90;;;15.00;99.90;;;;;;5054786;28;20104;-51
2022/07/15 02:28:56;;;;;;;5.57;3.50;;;14.90;99.90;;;;;;5036971;28;20059;-50
2022/07/15 02:31:25;;;;;;;6.40;3.78;;;14.90;99.90;;;;;;5037028;28;20029;-50
2022/07/15 02:33:51;;;;;;;6.60;4.40;;;14.90;99.90;;;;;;5036838;28;20029;-51
2022/07/15 02:36:17;;;;;;;6.32;3.22;;;15.00;99.90;;;;;;5053402;28;20540;-51
2022/07/15 02:38:46;;;;;;;8.95;4.40;;;14.90;99.90;;;;;;5036542;28;20024;-50
2022/07/15 02:41:14;;;;;;;7.03;4.00;;;14.90;99.90;;;;;;5037143;28;20510;-51
2022/07/15 02:43:43;;;;;;;5.45;3.28;;;14.90;99.90;;;;;;5053275;28;20112;-50
2022/07/15 02:46:10;;;;;;;7.20;3.53;;;14.80;99.90;;;;;;5036778;28;20096;-51
2022/07/15 02:48:37;;;;;;;9.55;4.22;;;14.80;99.90;;;;;;5053248;28;20045;-51
2022/07/15 02:51:04;;;;;;;9.95;3.65;;;14.90;99.90;;;;;;5036780;28;20058;-51
2022/07/15 02:53:31;;;;;;;4.95;2.92;;;14.80;99.90;;;;;;5054516;28;20100;-51
2022/07/15 02:56:03;;;;;;;9.18;3.70;;;14.70;99.90;;;;;;5053287;28;20028;-51
2022/07/15 02:58:30;;;;;;;6.18;3.20;;;14.60;99.90;;;;;;5036542;28;20052;-50
2022/07/15 03:00:58;;;;;;;8.70;3.08;;;14.60;99.90;;;;;;5036763;28;20035;-50
2022/07/15 03:03:28;;;;;;;6.90;2.75;;;14.50;99.90;;;;;;5036402;28;20029;-51
2022/07/15 03:05:57;;;;;;;6.10;3.42;;;14.40;99.90;;;;;;5020212;28;20128;-51
2022/07/15 03:08:24;;;;;;;5.95;3.83;;;14.50;99.90;;;;;;5036548;28;20120;-50
2022/07/15 03:10:50;;;;;;;4.93;4.20;;;14.50;99.90;;;;;;5036388;28;20037;-51
2022/07/15 03:13:17;;;;;;;7.65;5.00;;;14.50;99.90;;;;;;5036336;28;20033;-50
2022/07/15 03:15:43;;;;;;;5.57;4.15;;;14.50;99.90;;;;;;5036255;28;20079;-51
2022/07/15 03:18:10;;;;;;;9.07;4.10;;;14.40;99.90;;;;;;5054143;28;20025;-51
2022/07/15 03:20:36;;;;;;;5.93;3.33;;;14.40;99.90;;;;;;5036427;28;20033;-51
2022/07/15 03:23:02;;;;;;;6.15;3.40;;;14.40;99.90;;;;;;5047800;28;20178;-51
2022/07/15 03:25:29;;;;;;;4.90;3.28;;;14.40;99.90;;;;;;5052978;28;20029;-51
2022/07/15 03:28:01;;;;;;;5.32;3.00;;;14.30;99.90;;;;;;5054181;28;20060;-51
2022/07/15 03:30:30;;;;;;;8.18;3.70;;;14.40;99.90;;;;;;5054761;28;20029;-51
2022/07/15 03:32:56;;;;;;;6.53;3.20;;;14.40;99.90;;;;;;5057030;28;20508;-51
2022/07/15 03:35:23;;;;;;;7.10;3.60;;;14.40;99.90;;;;;;5057011;28;20033;-51
2022/07/15 03:37:49;;;;;;;7.10;3.50;;;14.40;99.90;;;;;;5056787;28;20060;-50
2022/07/15 03:40:15;;;;;;;5.25;2.92;;;14.30;99.90;;;;;;5058028;28;20104;-50
2022/07/15 03:42:41;;;;;;;5.53;3.10;;;14.40;99.90;;;;;;5039960;28;20056;-51
2022/07/15 03:45:07;;;;;;;4.93;2.72;;;14.20;99.90;;;;;;5056746;28;20037;-50
2022/07/15 03:47:33;;;;;;;5.47;2.70;;;14.20;99.90;;;;;;5056636;28;20124;-51
2022/07/15 03:50:04;;;;;;;6.80;3.25;;;14.20;99.90;;;;;;5056596;28;20056;-51
2022/07/15 03:52:33;;;;;;;6.93;2.63;;;14.20;99.90;;;;;;5056440;28;20035;-51
2022/07/15 03:54:59;;;;;;;4.00;2.90;;;14.30;99.90;;;;;;5056449;28;20113;-51
2022/07/15 03:57:26;;;;;;;4.45;2.47;;;14.30;99.90;;;;;;5056470;28;20116;-51
2022/07/15 03:59:52;;;;;;;3.40;2.80;;;14.40;99.90;;;;;;5057746;28;20025;-51
2022/07/15 04:02:19;;;;;;;3.47;2.65;;;14.40;99.90;;;;;;5056233;28;20033;-51
2022/07/15 04:04:44;;;;;;;3.97;2.60;;;14.50;99.90;;;;;;5056343;28;20403;-51
2022/07/15 04:07:10;;;;;;;4.03;2.42;;;14.50;99.90;;;;;;5056321;28;20029;-51
2022/07/15 04:09:36;;;;;;;5.85;2.63;;;14.60;99.90;;;;;;5056120;28;20029;-51
2022/07/15 04:12:02;;;;;;;10.43;3.88;;;14.70;99.90;;;;;;5056270;28;20375;-51
2022/07/15 04:14:29;;;;;;;5.10;3.78;;;14.70;99.90;;;;;;5039465;28;20326;-51
2022/07/15 04:16:55;;;;;;;4.63;3.50;;;14.80;99.90;;;;;;5056229;28;20668;-50
2022/07/15 04:19:28;;;;;;;7.95;3.72;;;14.90;99.90;;;;;;5055939;28;20088;-51
2022/07/15 04:21:57;;;;;;;11.32;4.18;;;15.00;99.90;;;;;;5055868;28;20072;-51
2022/07/15 04:24:23;;;;;;;11.10;4.13;;;15.10;99.90;;;;;;5055695;28;20037;-51
2022/07/15 04:26:50;;;;;;;7.90;3.28;;;15.10;99.90;;;;;;5055731;28;20036;-51
2022/07/15 04:29:16;;;;;;;5.90;3.70;;;15.20;99.90;;;;;;5055774;28;20033;-51
2022/07/15 04:31:44;;;;;;;6.63;3.22;;;15.20;99.90;;;;;;5055801;28;20036;-51
2022/07/15 04:34:16;;;;;;;6.85;3.58;;;15.30;99.90;;;;;;5055719;28;20033;-50
2022/07/15 04:36:44;;;;;;;7.05;3.88;;;15.30;99.90;;;;;;5055523;28;20037;-51
2022/07/15 04:39:10;;;;;;;5.30;3.30;;;15.40;99.90;;;;;;5055415;28;20103;-51
2022/07/15 04:41:36;;;;;;;8.60;3.88;;;15.40;99.90;;;;;;5054808;28;20021;-51
2022/07/15 04:44:04;;;;;;;18.13;5.20;;;15.50;99.90;;;;;;5055713;28;20036;-51
2022/07/15 04:46:31;;;;;;;13.07;5.25;;;15.60;99.90;;;;;;5056526;28;20025;-51
2022/07/15 04:52:00;;;;;;;13.07;4.88;;;15.90;99.90;;;;;;5055186;28;20029;-51
2022/07/15 04:54:26;;;;;;;18.23;4.65;;;16.00;99.90;;;;;;5055430;28;20036;-51
2022/07/15 04:56:52;;;;;;;14.63;4.47;;;16.10;99.90;;;;;;5038598;28;20032;-51
2022/07/15 04:59:19;;;;;;;10.95;4.82;;;16.20;99.90;;;;;;5054825;28;20033;-51
2022/07/15 05:01:45;;;;;;;11.43;5.22;;;16.30;99.90;;;;;;5055911;28;20025;-51
2022/07/15 05:04:12;;;;;;;14.07;5.53;;;16.40;99.90;;;;;;5055077;28;20025;-51
2022/07/15 05:06:38;;;;;;;13.55;6.57;;;16.60;99.90;;;;;;5054976;28;20063;-51
2022/07/15 05:09:06;;;;;;;10.38;3.75;;;16.70;99.90;;;;;;5038758;28;20033;-51
2022/07/15 05:11:34;;;;;;;11.57;4.57;;;16.80;99.90;;;;;;5055268;28;20060;-51
2022/07/15 05:14:00;;;;;;;19.88;6.18;;;16.90;99.90;;;;;;5054951;28;20362;-51
2022/07/15 05:16:27;;;;;;;14.88;4.68;;;17.10;99.90;;;;;;5055016;28;20065;-51
2022/07/15 05:18:53;;;;;;;13.48;4.38;;;17.20;99.90;;;;;;5056015;28;20060;-51
2022/07/15 05:21:20;;;;;;;14.05;5.20;;;17.40;99.90;;;;;;5054725;28;20032;-51
2022/07/15 05:23:46;;;;;;;29.95;7.45;;;17.50;99.90;;;;;;5026515;28;20082;-51
2022/07/15 05:26:12;;;;;;;30.33;5.50;;;17.60;99.90;;;;;;5055891;28;20029;-51
2022/07/15 05:28:40;;;;;;;22.80;6.55;;;17.80;99.90;;;;;;5025049;28;20083;-51
2022/07/15 05:31:07;;;;;;;15.95;4.90;;;17.90;99.90;;;;;;5017487;28;20526;-51
2022/07/15 05:33:34;;;;;;;24.05;5.20;;;18.00;99.90;;;;;;5034392;28;20032;-51
2022/07/15 05:36:04;;;;;;;14.15;4.35;;;18.10;99.90;;;;;;5037594;28;20486;-51
2022/07/15 05:38:31;;;;;;;19.55;5.15;;;18.20;99.90;;;;;;5036506;28;20073;-51
2022/07/15 05:41:00;;;;;;;17.05;4.78;;;18.30;99.90;;;;;;5037781;28;20146;-51
2022/07/15 05:43:26;;;;;;;15.43;4.32;;;18.50;99.90;;;;;;5037567;28;20029;-51
2022/07/15 05:45:53;;;;;;;14.73;4.57;;;18.60;99.90;;;;;;5055634;28;20025;-51
2022/07/15 05:48:21;;;;;;;15.43;4.63;;;18.70;99.90;;;;;;5037581;28;20032;-51
2022/07/15 05:50:51;;;;;;;29.00;7.10;;;18.90;99.90;;;;;;5037248;28;20029;-51
2022/07/15 05:53:17;;;;;;;14.73;4.72;;;19.10;99.90;;;;;;5037076;28;20040;-51
2022/07/15 05:55:44;;;;;;;18.23;5.13;;;19.20;99.90;;;;;;5036888;28;20040;-51
2022/07/15 05:58:15;;;;;;;21.38;6.70;;;19.30;99.90;;;;;;5037219;28;20033;-51
2022/07/15 06:00:42;;;;;;;23.95;4.97;;;19.40;99.90;;;;;;5037488;28;20029;-51
2022/07/15 06:03:08;;;;;;;25.58;5.55;;;19.50;99.90;;;;;;5036721;28;20025;-51
2022/07/15 06:05:38;;;;;;;;;;;19.60;99.90;;;;;;5033945;28;20029;-51
2022/07/15 06:08:04;;;;;;;11.50;4.22;;;19.80;99.90;;;;;;5034548;28;19916;-51
2022/07/15 06:10:34;;;;;;;10.35;3.65;;;19.90;99.90;;;;;;5049917;28;20127;-51
2022/07/15 06:13:01;;;;;;;13.07;3.80;;;20.10;99.70;;;;;;5045230;28;20033;-51
2022/07/15 06:15:28;;;;;;;12.02;3.70;;;20.20;98.50;;;;;;5025939;28;20028;-51
2022/07/15 06:18:04;;;;;;;9.10;3.75;;;20.30;98.90;;;;;;5020022;28;20037;-51
2022/07/15 06:20:31;;;;;;;19.42;5.07;;;20.40;98.50;;;;;;5036219;28;20025;-51
2022/07/15 06:22:59;;;;;;;26.95;5.90;;;20.60;97.40;;;;;;5043189;28;20166;-51
2022/07/15 06:25:26;;;;;;;10.20;3.22;;;20.70;97.40;;;;;;5038493;28;20375;-51
2022/07/15 06:27:52;;;;;;;15.38;3.70;;;20.90;97.90;;;;;;5052143;28;20036;-51
2022/07/15 06:30:19;;;;;;;12.90;4.05;;;21.10;96.70;;;;;;5026600;28;20029;-51
2022/07/15 06:32:44;;;;;;;13.80;3.72;;;21.30;96.20;;;;;;5046331;28;20095;-51
2022/07/15 06:35:11;;;;;;;11.35;4.57;;;21.50;96.00;;;;;;5054487;28;20029;-51
2022/07/15 06:37:37;;;;;;;11.88;3.85;;;21.60;94.50;;;;;;5034847;28;20048;-51
2022/07/15 06:40:04;;;;;;;20.75;6.32;;;21.80;91.90;;;;;;5028987;28;20145;-51
2022/07/15 06:42:31;;;;;;;12.95;4.82;;;21.90;93.30;;;;;;5029215;28;20056;-51
2022/07/15 06:45:02;;;;;;;16.83;4.35;;;22.20;92.20;;;;;;5032969;28;20025;-51
2022/07/15 06:47:29;;;;;;;16.23;4.72;;;22.40;90.80;;;;;;5015068;28;20029;-51
2022/07/15 06:50:01;;;;;;;6.28;2.28;;;22.60;90.50;;;;;;5022807;28;20028;-51
2022/07/15 06:52:30;;;;;;;11.97;3.23;;;22.80;86.60;;;;;;5045856;28;20043;-52
2022/07/15 06:54:56;;;;;;;13.15;4.10;;;23.00;83.20;;;;;;5043478;28;20113;-51
2022/07/15 06:57:23;;;;;;;7.50;3.50;;;23.20;82.90;;;;;;5023373;28;20034;-51
2022/07/15 06:59:52;;;;;;;15.43;4.80;;;23.50;83.20;;;;;;5035559;28;20025;-52
2022/07/15 07:02:18;;;;;;;23.30;4.63;;;23.70;80.50;;;;;;5049416;28;20100;-51
2022/07/15 07:04:47;;;;;;;22.55;5.18;;;24.00;77.60;;;;;;5032411;28;20128;-51
2022/07/15 07:07:13;;;;;;;17.45;5.22;;;24.20;76.40;;;;;;5029340;28;20469;-51
2022/07/15 07:09:39;;;;;;;16.05;3.90;;;24.40;72.10;;;;;;5031029;28;20037;-52
2022/07/15 07:12:05;;;;;;;13.35;4.32;;;24.60;71.00;;;;;;5026029;28;20029;-52
2022/07/15 07:14:31;;;;;;;14.70;3.78;;;24.90;70.70;;;;;;5050970;28;20056;-52
2022/07/15 07:16:58;;;;;;;12.43;3.60;;;25.20;69.10;;;;;;5054432;28;20021;-52
2022/07/15 07:19:24;;;;;;;19.02;4.78;;;25.50;67.60;;;;;;5053868;28;20120;-52
2022/07/15 07:21:49;;;;;;;15.70;4.13;;;25.80;65.10;;;;;;5046788;28;20183;-52
2022/07/15 07:24:15;;;;;;;15.68;4.03;;;26.10;63.80;;;;;;5054155;28;20029;-52
2022/07/15 07:26:42;;;;;;;21.88;4.57;;;26.40;64.10;;;;;;5054006;28;20028;-52
2022/07/15 07:29:07;;;;;;;12.10;3.42;;;26.80;62.00;;;;;;5054247;28;20372;-52
2022/07/15 07:31:33;;;;;;;16.95;3.42;;;27.10;59.90;;;;;;5054480;28;20116;-52
2022/07/15 07:33:59;;;;;;;17.77;3.97;;;27.30;56.90;;;;;;5036216;28;20082;-52
2022/07/15 07:36:26;;;;;;;24.08;4.80;;;27.60;57.60;;;;;;5048188;28;20018;-52
2022/07/15 07:38:53;;;;;;;7.50;2.80;;;27.90;56.90;;;;;;5043040;28;20076;-52
2022/07/15 07:41:20;;;;;;;6.53;2.55;;;28.00;54.80;;;;;;5038878;28;20029;-52
2022/07/15 07:43:46;;;;;;;13.13;4.00;;;28.30;52.60;;;;;;5033784;28;20459;-52
2022/07/15 07:46:13;;;;;;;987.25;90.50;;;28.40;53.60;;;;;;5032280;28;20041;-52
2022/07/15 07:48:40;;;;;;;303.25;29.00;;;28.80;53.40;;;;;;5033063;28;20045;-52
2022/07/15 07:51:07;;;;;;;26.75;5.22;;;29.00;52.00;;;;;;5033543;28;20544;-52
2022/07/15 07:53:33;;;;;;;9.88;3.00;;;29.40;51.00;;;;;;5042404;28;20059;-52
2022/07/15 07:55:59;;;;;;;8.30;3.65;;;29.20;49.60;;;;;;5034810;28;20040;-52
2022/07/15 07:58:25;;;;;;;21.80;5.50;;;29.40;48.60;;;;;;5052694;28;20029;-52
2022/07/15 08:00:55;;;;;;;16.70;4.10;;;29.80;49.10;;;;;;5046249;28;20025;-52
2022/07/15 08:03:21;;;;;;;9.45;3.35;;;30.20;49.00;;;;;;5049756;28;20029;-52
2022/07/15 08:05:47;;;;;;;10.50;3.72;;;30.50;47.40;;;;;;5053054;28;20382;-52
2022/07/15 08:08:16;;;;;;;16.77;3.40;;;30.80;47.60;;;;;;5048222;28;20033;-52
2022/07/15 08:10:47;;;;;;;13.27;3.70;;;30.70;46.60;;;;;;5053333;28;20032;-53
2022/07/15 08:13:15;;;;;;;10.80;4.07;;;31.20;46.90;;;;;;5054019;28;20040;-52
2022/07/15 08:15:41;;;;;;;9.43;4.00;;;31.50;44.80;;;;;;5014174;28;20029;-52
2022/07/15 08:18:07;;;;;;;12.23;3.53;;;31.70;43.50;;;;;;5043821;28;20048;-52
2022/07/15 08:20:33;;;;;;;9.95;3.58;;;31.90;43.10;;;;;;5041432;28;20029;-52
2022/07/15 08:23:00;;;;;;;22.42;4.90;;;32.10;43.50;;;;;;5054319;28;20098;-52
2022/07/15 08:25:29;;;;;;;23.38;4.50;;;32.20;41.40;;;;;;5054783;28;20079;-52
2022/07/15 08:27:56;;;;;;;14.52;4.47;;;32.40;40.70;;;;;;5053728;28;20032;-52
2022/07/15 08:30:22;;;;;;;12.75;3.72;;;32.10;39.90;;;;;;5053253;28;20032;-52
2022/07/15 08:32:49;;;;;;;15.13;4.40;;;32.40;39.70;;;;;;5037111;28;20430;-52
2022/07/15 08:35:14;;;;;;;19.90;5.20;;;32.40;39.20;;;;;;5054029;28;20075;-53
2022/07/15 08:37:40;;;;;;;17.67;4.35;;;32.90;39.20;;;;;;5034826;28;20033;-52
2022/07/15 08:40:09;;;;;;;18.38;4.78;;;33.20;39.70;;;;;;5054455;28;20037;-53
2022/07/15 08:42:39;;;;;;;7.68;2.88;;;32.90;39.50;;;;;;5056422;28;20029;-53
2022/07/15 08:45:06;;;;;;;20.92;4.50;;;33.20;38.80;;;;;;5057072;28;20086;-52
2022/07/15 08:47:32;;;;;;;14.32;3.95;;;33.60;37.20;;;;;;5056364;28;20037;-53
2022/07/15 08:49:59;;;;;;;8.77;2.75;;;33.90;36.80;;;;;;5056153;28;20021;-53
2022/07/15 08:52:26;;;;;;;16.42;3.97;;;33.90;36.50;;;;;;5054237;28;20033;-53
2022/07/15 08:54:56;;;;;;;10.35;3.47;;;33.30;37.10;;;;;;5055624;28;20025;-53
2022/07/15 08:57:23;;;;;;;12.70;3.35;;;33.60;37.40;;;;;;5055750;28;20029;-53
2022/07/15 08:59:52;;;;;;;14.35;4.10;;;33.70;37.70;;;;;;5055760;28;20031;-53
2022/07/15 09:02:22;;;;;;;19.92;4.22;;;33.80;38.10;;;;;;5054540;28;20409;-53
2022/07/15 09:05:07;;;;;;;;;;;34.20;38.00;;;;;;5036623;28;20039;-53
2022/07/15 09:07:49;;;;;;;13.55;3.38;;;34.30;38.30;;;;;;5054635;28;20342;-53
2022/07/15 09:10:15;;;;;;;9.05;3.25;;;33.90;38.60;;;;;;5036489;28;20549;-53
2022/07/15 09:12:42;;;;;;;11.77;3.50;;;34.20;38.10;;;;;;5036853;28;20112;-53
2022/07/15 09:15:08;;;;;;;11.20;3.50;;;34.00;36.30;;;;;;5034096;28;20021;-53
2022/07/15 09:17:36;;;;;;;15.50;4.07;;;33.90;37.10;;;;;;5052618;28;20040;-53
2022/07/15 09:20:08;;;;;;;6.53;2.70;;;34.40;37.60;;;;;;5055077;28;20482;-53
2022/07/15 09:22:48;;;;;;;10.38;3.08;;;34.80;38.30;;;;;;5051623;28;20076;-53
2022/07/15 09:25:14;;;;;;;7.97;2.83;;;34.90;34.10;;;;;;5036897;28;20051;-53
2022/07/15 09:27:43;;;;;;;10.15;2.72;;;35.30;35.00;;;;;;5054804;28;20108;-53
2022/07/15 09:33:35;;;;;;;8.57;3.15;;;35.90;34.40;;;;;;5054965;28;20036;-53
2022/07/15 09:36:12;;;;;;;4.50;2.45;;;35.90;32.80;;;;;;5044441;28;20032;-53
2022/07/15 09:38:59;;;;;;;12.07;3.30;;;35.60;33.90;;;;;;5048835;28;20032;-53
2022/07/15 09:41:35;;;;;;;13.88;3.30;;;35.90;34.60;;;;;;5055435;28;20108;-53
2022/07/15 09:44:06;;;;;;;9.77;3.25;;;36.00;33.00;;;;;;5055605;28;20031;-53
2022/07/15 09:46:49;;;;;;;9.23;2.60;;;36.10;33.30;;;;;;5037360;28;20028;-53
2022/07/15 09:49:25;;;;;;;6.35;2.25;;;36.10;32.50;;;;;;5045112;28;20155;-53
2022/07/15 09:51:55;;;;;;;12.52;2.85;;;36.20;32.70;;;;;;5035757;28;20033;-53
2022/07/15 09:54:25;;;;;;;8.90;2.85;;;36.50;33.00;;;;;;5033676;28;20036;-53
2022/07/15 09:56:52;;;;;;;9.90;2.88;;;36.10;34.40;;;;;;5034008;28;20048;-53
2022/07/15 09:59:19;;;;;;;8.05;3.00;;;35.30;33.50;;;;;;5035044;28;20089;-53
2022/07/15 10:01:47;;;;;;;5.65;2.10;;;35.80;33.40;;;;;;5052868;28;20098;-53
2022/07/15 10:04:19;;;;;;;4.00;1.90;;;36.10;34.80;;;;;;5046756;28;20035;-53
2022/07/15 10:06:48;;;;;;;4.80;2.20;;;36.40;33.30;;;;;;5017906;28;20052;-53
2022/07/15 10:09:14;;;;;;;6.35;2.20;;;36.70;31.80;;;;;;5035360;28;20459;-53
2022/07/15 10:11:51;;;;;;;4.40;1.88;;;36.40;31.90;;;;;;5052233;28;20039;-53
2022/07/15 10:14:33;;;;;;;19.67;4.15;;;36.60;32.00;;;;;;5033175;28;20026;-53
2022/07/15 10:17:35;;;;;;;5.55;2.25;;;36.60;31.80;;;;;;5034820;28;20026;-53
2022/07/15 10:20:22;;;;;;;9.55;2.03;;;36.40;31.80;;;;;;5034880;28;20376;-53
2022/07/15 10:23:14;;;;;;;2.35;1.60;;;36.10;32.40;;;;;;5043259;28;20050;-53
2022/07/15 10:25:43;;;;;;;3.03;1.45;;;36.10;33.00;;;;;;5034704;28;20112;-53
2022/07/15 10:28:43;;;;;;;7.95;2.30;;;36.20;31.70;;;;;;5034909;28;20034;-53
2022/07/15 10:31:21;;;;;;;4.07;1.77;;;36.10;32.30;;;;;;5034562;28;20033;-53
2022/07/15 10:34:02;;;;;;;5.78;2.13;;;36.40;32.60;;;;;;5033569;28;20120;-53
2022/07/15 10:36:40;;;;;;;4.45;2.03;;;36.80;32.90;;;;;;5044198;28;20060;-53
2022/07/15 10:39:08;;;;;;;5.68;1.90;;;36.60;31.80;;;;;;5053798;28;20036;-53
2022/07/15 10:42:00;;;;;;;4.38;1.70;;;36.30;31.90;;;;;;5054137;28;20120;-53
2022/07/15 10:44:29;;;;;;;7.20;1.77;;;35.60;33.30;;;;;;5054391;28;20020;-53
2022/07/15 10:47:14;;;;;;;5.88;2.17;;;36.00;33.10;;;;;;5054317;28;20029;-53
2022/07/15 10:49:43;;;;;;;7.53;2.92;;;36.70;32.60;;;;;;5054290;28;20029;-53
2022/07/15 10:52:18;;;;;;;16.60;4.72;;;36.80;31.70;;;;;;5054420;28;20033;-53
2022/07/15 10:54:51;;;;;;;5.05;1.83;;;37.10;32.80;;;;;;5054396;28;20020;-53
2022/07/15 10:57:20;;;;;;;11.65;3.40;;;36.90;32.30;;;;;;5054509;28;20396;-53
2022/07/15 10:59:54;;;;;;;3.70;1.63;;;36.60;31.60;;;;;;5053591;28;20036;-53
2022/07/15 11:02:23;;;;;;;8.05;2.38;;;36.50;31.40;;;;;;5052645;28;20033;-53
2022/07/15 11:04:52;;;;;;;2.50;1.60;;;36.80;32.00;;;;;;5054851;28;20057;-53
2022/07/15 11:07:20;;;;;;;3.95;1.73;;;36.90;31.30;;;;;;5054344;28;20025;-53
2022/07/15 11:09:53;;;;;;;8.90;1.77;;;37.00;30.90;;;;;;5042640;28;20043;-53
2022/07/15 11:12:19;;;;;;;6.70;2.22;;;36.50;32.80;;;;;;5053221;28;20036;-53
2022/07/15 11:15:04;;;;;;;8.98;2.00;;;36.40;32.20;;;;;;5054302;28;20029;-53
2022/07/15 11:17:29;;;;;;;5.43;1.92;;;36.70;32.00;;;;;;5044241;28;20053;-53
2022/07/15 11:20:11;;;;;;;5.72;2.25;;;37.00;31.50;;;;;;5054182;28;20105;-53
2022/07/15 11:22:40;;;;;;;5.93;1.98;;;37.20;31.60;;;;;;5047014;28;20052;-53
2022/07/15 11:25:15;;;;;;;4.55;1.65;;;36.50;31.90;;;;;;5033998;28;20030;-53
2022/07/15 11:27:41;;;;;;;10.98;2.30;;;37.40;31.90;;;;;;5044521;28;20025;-53
2022/07/15 11:30:07;;;;;;;7.55;1.98;;;37.30;29.80;;;;;;5049905;28;20106;-53
2022/07/15 11:32:33;;;;;;;2.03;1.45;;;36.80;30.00;;;;;;5047609;28;20025;-53
2022/07/15 11:35:03;;;;;;;4.75;1.42;;;37.00;30.50;;;;;;5047096;28;20471;-53
2022/07/15 11:37:36;;;;;;;5.32;1.58;;;37.40;30.70;;;;;;5053311;28;20151;-53
2022/07/15 11:40:08;;;;;;;9.27;2.92;;;37.50;29.10;;;;;;5053926;28;20044;-53
2022/07/15 11:45:37;;;;;;;6.72;1.80;;;38.10;29.70;;;;;;5047405;28;20057;-53
2022/07/15 11:48:07;;;;;;;3.83;2.30;;;37.40;30.00;;;;;;5038314;28;20033;-53
2022/07/15 11:50:34;;;;;;;16.83;3.60;;;37.70;30.80;;;;;;5034146;28;20514;-53
2022/07/15 11:53:00;;;;;;;10.45;2.40;;;37.60;31.10;;;;;;5037565;28;20262;-53
2022/07/15 11:55:26;;;;;;;8.55;2.35;;;37.60;30.90;;;;;;5036622;28;20379;-53
2022/07/15 11:57:56;;;;;;;14.57;2.92;;;37.50;32.40;;;;;;5044700;28;20098;-53
2022/07/15 12:00:31;;;;;;;4.88;1.70;;;37.90;31.60;;;;;;5039716;28;20033;-53
2022/07/15 12:03:10;;;;;;;10.82;2.75;;;37.80;30.40;;;;;;5054071;28;20032;-53
2022/07/15 12:05:36;;;;;;;4.07;1.75;;;37.90;30.00;;;;;;5055806;28;20058;-53
2022/07/15 12:08:03;;;;;;;2.75;1.60;;;38.40;30.30;;;;;;5052854;28;20104;-53
2022/07/15 12:10:38;;;;;;;5.45;2.10;;;38.10;29.80;;;;;;5044240;28;20082;-53
2022/07/15 12:13:05;;;;;;;7.43;2.35;;;37.90;30.00;;;;;;5040564;28;20540;-53
2022/07/15 12:15:33;;;;;;;7.20;2.58;;;37.70;30.70;;;;;;5056320;28;20398;-53
2022/07/15 12:18:00;;;;;;;7.13;2.35;;;37.30;30.90;;;;;;5056643;28;20033;-53
2022/07/15 12:20:27;;;;;;;9.80;2.65;;;37.20;31.30;;;;;;5056803;28;20017;-53
2022/07/15 12:23:26;;;;;;;6.53;1.77;;;37.50;31.60;;;;;;5056959;28;20045;-53
2022/07/15 12:26:14;;;;;;;12.07;2.35;;;37.60;31.50;;;;;;5034670;28;20041;-53
2022/07/15 12:28:41;;;;;;;19.23;2.67;;;37.30;31.90;;;;;;5038669;28;20482;-53
2022/07/15 12:31:10;;;;;;;16.58;2.30;;;36.80;30.30;;;;;;5055933;28;20025;-53
2022/07/15 12:33:39;;;;;;;5.82;2.58;;;37.00;30.40;;;;;;5056275;28;20037;-53
2022/07/15 12:36:28;;;;;;;12.70;3.15;;;36.90;29.50;;;;;;5056410;28;20104;-53
2022/07/15 12:39:09;;;;;;;12.73;3.45;;;36.70;31.00;;;;;;5048775;28;20021;-53
2022/07/15 12:41:37;;;;;;;13.90;2.67;;;36.90;29.70;;;;;;5055556;28;20028;-53
2022/07/15 12:44:04;;;;;;;9.25;2.55;;;36.20;29.90;;;;;;5049468;28;20029;-53
2022/07/15 12:46:56;;;;;;;14.95;3.65;;;36.80;31.10;;;;;;5053322;28;20088;-53
2022/07/15 12:49:46;;;;;;;11.23;3.33;;;36.90;29.10;;;;;;5041347;28;20494;-53
2022/07/15 12:52:15;;;;;;;9.27;3.05;;;37.40;29.10;;;;;;5045546;28;20037;-53
2022/07/15 12:54:41;;;;;;;12.33;3.07;;;37.40;29.40;;;;;;5051795;28;20455;-53
2022/07/15 12:57:31;;;;;;;2.38;1.63;;;36.90;29.60;;;;;;5038553;28;20744;-53
2022/07/15 13:00:00;;;;;;;7.20;1.90;;;37.30;29.70;;;;;;5055164;28;20457;-53
2022/07/15 13:02:27;;;;;;;3.35;1.70;;;37.60;28.80;;;;;;5053917;28;20041;-53
2022/07/15 13:04:54;;;;;;;3.13;1.42;;;36.20;28.20;;;;;;5056571;28;20028;-53